createdAt,value
2022-10-09T00:00:29.267Z,5.8
2022-10-09T00:06:06.606Z,5.7
2022-10-09T00:11:43.403Z,5.6
2022-10-09T00:17:21.999Z,5.6
2022-10-09T00:22:58.447Z,5.5
2022-10-09T00:28:38.556Z,5.5
2022-10-09T00:34:02.007Z,5.4
2022-10-09T00:39:38.193Z,5.4
2022-10-09T00:44:59.683Z,5.4
2022-10-09T00:50:38.337Z,5.3
2022-10-09T00:56:16.145Z,5.3
2022-10-09T01:01:53.595Z,5.3
2022-10-09T01:07:31.569Z,5.2
2022-10-09T01:13:08.196Z,5.1
2022-10-09T01:18:45.661Z,5.1
2022-10-09T01:24:23.982Z,5.1
2022-10-09T01:29:44.893Z,5
2022-10-09T01:35:21.640Z,5
2022-10-09T01:40:44.232Z,5
2022-10-09T01:46:21.584Z,5
2022-10-09T01:51:43.117Z,4.9
2022-10-09T01:57:06.122Z,5
2022-10-09T02:02:42.965Z,4.9
2022-10-09T02:08:04.196Z,4.9
2022-10-09T02:13:42.022Z,4.9
2022-10-09T02:19:04.192Z,4.9
2022-10-09T02:24:45.969Z,4.9
2022-10-09T02:30:29.676Z,4.9
2022-10-09T02:36:06.059Z,4.9
2022-10-09T02:41:41.860Z,4.9
2022-10-09T02:47:19.449Z,4.9
2022-10-09T02:52:55.968Z,4.8
2022-10-09T02:58:20.701Z,4.8
2022-10-09T03:03:59.966Z,4.8
2022-10-09T03:09:21.472Z,4.7
2022-10-09T03:14:42.497Z,4.6
2022-10-09T03:19:49.435Z,4.6
2022-10-09T03:25:10.939Z,4.6
2022-10-09T03:30:32.293Z,4.5
2022-10-09T03:36:08.349Z,4.4
2022-10-09T03:41:29.337Z,4.4
2022-10-09T03:46:20.141Z,4.4
2022-10-09T03:51:26.860Z,4.4
2022-10-09T03:56:48.164Z,4.3
2022-10-09T04:01:55.151Z,4.3
2022-10-09T04:07:17.478Z,4.3
2022-10-09T04:12:38.246Z,4.1
2022-10-09T04:17:59.312Z,4.1
2022-10-09T04:23:22.505Z,4.1
2022-10-09T04:28:28.309Z,4
2022-10-09T04:33:50.943Z,4
2022-10-09T04:38:57.147Z,3.9
2022-10-09T04:44:18.893Z,3.9
2022-10-09T04:49:43.271Z,3.8
2022-10-09T04:55:10.475Z,3.8
2022-10-09T05:00:32.016Z,3.8
2022-10-09T05:06:10.841Z,3.8
2022-10-09T05:11:48.425Z,3.7
2022-10-09T05:17:56.795Z,3.8
2022-10-09T05:23:34.315Z,4.2
2022-10-09T05:28:59.891Z,4.9
2022-10-09T05:34:41.303Z,6.5
2022-10-09T05:40:19.039Z,8.8
2022-10-09T05:45:57.707Z,11.1
2022-10-09T05:51:34.959Z,13.2
2022-10-09T05:57:15.804Z,14.7
2022-10-09T06:02:54.537Z,16.1
2022-10-09T06:08:31.894Z,17.4
2022-10-09T06:14:14.776Z,19.1
2022-10-09T06:19:56.435Z,20.7
2022-10-09T06:25:39.166Z,22
2022-10-09T06:31:17.398Z,23.1
2022-10-09T06:37:00.908Z,24.5
2022-10-09T06:42:37.712Z,26.1
2022-10-09T06:48:15.719Z,27
2022-10-09T06:53:53.934Z,27.4
2022-10-09T06:59:31.247Z,28.1
2022-10-09T07:05:09.991Z,30.1
2022-10-09T07:10:47.777Z,31.8
2022-10-09T07:16:25.919Z,33.3
2022-10-09T07:22:03.256Z,35
2022-10-09T07:27:45.104Z,36.8
2022-10-09T07:33:23.962Z,38.5
2022-10-09T07:39:00.919Z,40.1
2022-10-09T07:44:38.876Z,41.5
2022-10-09T07:50:16.483Z,42.3
2022-10-09T07:55:54.149Z,58.9
2022-10-09T08:01:20.037Z,54.3
2022-10-09T08:06:58.442Z,47.6
2022-10-09T08:12:39.850Z,51.5
2022-10-09T08:18:19.035Z,53.8
2022-10-09T08:23:55.555Z,55.2
2022-10-09T08:29:36.664Z,51
2022-10-09T08:35:16.110Z,48.2
2022-10-09T08:41:19.800Z,49.1
2022-10-09T08:46:26.523Z,51.4
2022-10-09T08:52:04.379Z,57.4
2022-10-09T08:57:26.334Z,60.2
2022-10-09T09:03:04.781Z,60.9
2022-10-09T09:08:43.236Z,62.2
2022-10-09T09:14:05.721Z,62.8
2022-10-09T09:19:42.690Z,61.3
2022-10-09T09:25:05.340Z,59.9
2022-10-09T09:30:30.459Z,59.1
2022-10-09T09:35:56.260Z,62.6
2022-10-09T09:42:38.189Z,64.4
2022-10-09T09:47:44.203Z,64.2
2022-10-09T09:54:02.443Z,64.6
2022-10-09T09:59:34.572Z,64.9
2022-10-09T10:04:43.291Z,65.2
2022-10-09T10:10:05.384Z,67.1
2022-10-09T10:15:31.530Z,67.6
2022-10-09T10:20:59.417Z,67.9
2022-10-09T10:26:24.274Z,68.3
2022-10-09T10:31:47.570Z,68.8
2022-10-09T10:37:09.613Z,69.3
2022-10-09T10:42:46.880Z,69.6
2022-10-09T10:48:09.878Z,69.5
2022-10-09T10:53:33.665Z,69.6
2022-10-09T10:59:13.669Z,69.7
2022-10-09T11:04:27.229Z,70.1
2022-10-09T11:10:04.784Z,69.6
2022-10-09T11:15:48.826Z,69.6
2022-10-09T11:21:14.198Z,70.1
2022-10-09T11:26:21.046Z,70
2022-10-09T11:31:43.603Z,70.8
2022-10-09T11:37:21.671Z,71.1
2022-10-09T11:42:51.231Z,70.1
2022-10-09T11:48:00.445Z,69.5
2022-10-09T11:53:23.249Z,69.8
2022-10-09T11:58:44.522Z,70.3
2022-10-09T12:04:06.912Z,69.7
2022-10-09T12:09:48.234Z,69.3
2022-10-09T12:15:10.877Z,68.7
2022-10-09T12:20:51.633Z,68.6
2022-10-09T12:26:38.812Z,67.9
2022-10-09T12:32:16.175Z,68.1
2022-10-09T12:37:53.718Z,67.8
2022-10-09T12:43:38.271Z,66.3
2022-10-09T12:49:15.407Z,68.3
2022-10-09T12:54:53.714Z,71.3
2022-10-09T13:00:33.451Z,73.2
2022-10-09T13:06:12.227Z,69.4
2022-10-09T13:11:49.561Z,63.9
2022-10-09T13:17:27.713Z,65.1
2022-10-09T13:23:09.306Z,66.1
2022-10-09T13:28:47.136Z,66.9
2022-10-09T13:34:25.318Z,66.6
2022-10-09T13:40:04.123Z,65.6
2022-10-09T13:45:41.600Z,64.3
2022-10-09T13:51:23.113Z,63.1
2022-10-09T13:57:01.670Z,61.7
2022-10-09T14:02:40.988Z,60.1
2022-10-09T14:08:19.128Z,58.3
2022-10-09T14:13:56.057Z,56
2022-10-09T14:19:33.924Z,53.8
2022-10-09T14:25:14.519Z,51.5
2022-10-09T14:30:52.450Z,49.3
2022-10-09T14:36:33.885Z,47.3
2022-10-09T14:42:30.485Z,45.1
2022-10-09T14:47:53.447Z,43.3
2022-10-09T14:53:29.963Z,41.4
2022-10-09T14:59:07.409Z,39.8
2022-10-09T15:04:45.489Z,37.8
2022-10-09T15:10:23.631Z,36.2
2022-10-09T15:16:06.462Z,34.6
2022-10-09T15:21:43.421Z,33.1
2022-10-09T15:27:21.042Z,31.7
2022-10-09T15:33:00.457Z,30.4
2022-10-09T15:38:43.004Z,29
2022-10-09T15:44:21.410Z,27.4
2022-10-09T15:50:27.578Z,26
2022-10-09T15:55:48.147Z,24.9
2022-10-09T16:01:28.887Z,23.9
2022-10-09T16:07:07.556Z,23
2022-10-09T16:12:54.106Z,22.2
2022-10-09T16:18:34.882Z,21.4
2022-10-09T16:23:58.948Z,20.8
2022-10-09T16:29:36.591Z,20.2
2022-10-09T16:34:58.716Z,19.7
2022-10-09T16:40:28.663Z,19.3
2022-10-09T16:51:41.195Z,18.3
2022-10-09T16:57:19.140Z,17.9
2022-10-09T17:02:42.192Z,17.5
2022-10-09T17:08:19.569Z,17.1
2022-10-09T17:14:02.873Z,16.6
2022-10-09T17:19:26.603Z,16.3
2022-10-09T17:25:04.654Z,15.8
2022-10-09T17:30:27.810Z,15.4
2022-10-09T17:36:11.036Z,15.2
2022-10-09T17:41:53.639Z,14.9
2022-10-09T17:47:20.949Z,14.8
2022-10-09T17:52:27.506Z,14.7
2022-10-09T17:57:54.024Z,14.6
2022-10-09T18:03:17.137Z,14.5
2022-10-09T18:08:54.950Z,14.4
2022-10-09T18:14:01.037Z,14.3
2022-10-09T18:19:28.850Z,14.1
2022-10-09T18:24:51.291Z,13.9
2022-10-09T18:30:33.419Z,13.8
2022-10-09T18:35:58.840Z,13.6
2022-10-09T18:41:36.033Z,13.5
2022-10-09T18:47:13.606Z,13.3
2022-10-09T18:52:52.434Z,13.2
2022-10-09T18:58:32.803Z,13.1
2022-10-09T19:04:18.887Z,12.9
2022-10-09T19:09:57.581Z,12.8
2022-10-09T19:15:35.870Z,12.7
2022-10-09T19:21:13.496Z,12.6
2022-10-09T19:26:55.494Z,12.4
2022-10-09T19:32:36.775Z,12.3
2022-10-09T19:38:18.158Z,12.1
2022-10-09T19:43:56.273Z,11.9
2022-10-09T19:49:22.329Z,11.8
2022-10-09T19:54:59.000Z,11.6
2022-10-09T20:00:20.914Z,11.4
2022-10-09T20:05:58.518Z,11.4
2022-10-09T20:11:24.459Z,10.9
2022-10-09T20:17:04.795Z,10.8
2022-10-09T20:22:27.397Z,10.7
2022-10-09T20:27:54.335Z,10.6
2022-10-09T20:33:33.214Z,10.5
2022-10-09T20:38:59.741Z,10.4
2022-10-09T20:44:37.352Z,10.4
2022-10-09T20:49:59.321Z,10.3
2022-10-09T20:55:36.882Z,10.3
2022-10-09T21:00:47.794Z,10.2
2022-10-09T21:05:55.100Z,10.1
2022-10-09T21:11:34.819Z,10.1
2022-10-09T21:16:57.191Z,10.1
2022-10-09T21:22:40.608Z,10
2022-10-09T21:28:17.436Z,9.9
2022-10-09T21:33:44.628Z,9.9
2022-10-09T21:39:44.757Z,9.9
2022-10-09T21:45:21.994Z,9.9
2022-10-09T21:50:58.203Z,9.9
2022-10-09T21:56:36.582Z,9.8
2022-10-09T22:02:00.224Z,9.8
2022-10-09T22:07:37.652Z,9.8
2022-10-09T22:13:16.699Z,9.7
2022-10-09T22:18:42.090Z,9.6
2022-10-09T22:24:20.197Z,9.6
2022-10-09T22:29:58.579Z,9.6
2022-10-09T22:35:36.052Z,9.6
2022-10-09T22:41:12.285Z,9.6
2022-10-09T22:46:50.200Z,9.6
2022-10-09T22:52:10.631Z,9.6
2022-10-09T22:57:32.230Z,9.6
2022-10-09T23:03:09.818Z,9.6
2022-10-09T23:08:47.123Z,9.5
2022-10-09T23:14:08.949Z,9.4
2022-10-09T23:19:32.323Z,9.4
2022-10-09T23:24:53.886Z,9.3
2022-10-09T23:30:31.051Z,9.1
2022-10-09T23:36:09.387Z,9
2022-10-09T23:41:45.114Z,8.9
2022-10-09T23:47:12.518Z,8.8
2022-10-09T23:52:50.506Z,8.7
2022-10-09T23:58:11.562Z,8.6
